Time;durP1;ratioP1;P1;durP2;ratioP2;P2;SDS_P1;SDS_P2;PMS_P1;PMS_P2;Temp;Humidity;BMP_temperature;BMP_pressure;BME280_temperature;BME280_humidity;BME280_pressure;Samples;Min_cycle;Max_cycle;Signal;HPM_P1;HPM_P2
2021/08/10 00:01:48;;;;;;;9.13;5.70;;;;;;;25.15;46.48;94942.38;2970762;39;20052;-81
2021/08/10 00:03:50;;;;;;;7.35;5.20;;;;;;;25.25;46.15;94934.50;2967523;40;20045;-82
2021/08/10 00:05:51;;;;;;;7.35;4.90;;;;;;;25.51;45.62;94937.53;2962851;40;20068;-81
2021/08/10 00:07:55;;;;;;;9.88;5.68;;;;;;;25.75;45.06;94928.22;2965187;40;20052;-81
2021/08/10 00:09:57;;;;;;;13.90;5.78;;;;;;;25.92;44.45;94922.84;2970598;40;20144;-80
2021/08/10 00:11:59;;;;;;;10.45;5.75;;;;;;;26.12;44.16;94921.47;2967119;40;20137;-82
2021/08/10 00:14:01;;;;;;;7.90;5.43;;;;;;;26.26;43.62;94927.25;2967537;40;20055;-81
2021/08/10 00:16:03;;;;;;;8.85;5.65;;;;;;;26.08;43.99;94926.50;2963865;40;20060;-81
2021/08/10 00:18:05;;;;;;;9.52;5.03;;;;;;;26.16;44.02;94927.97;2964735;40;20057;-67
2021/08/10 00:20:08;;;;;;;7.78;5.28;;;;;;;26.23;43.72;94930.44;2961107;40;20409;-68
2021/08/10 00:22:10;;;;;;;10.20;5.57;;;;;;;26.30;43.45;94936.44;2965782;40;20083;-67
2021/08/10 00:24:11;;;;;;;6.55;5.00;;;;;;;26.30;43.48;94939.91;2962157;40;20433;-67
2021/08/10 00:26:13;;;;;;;8.85;5.25;;;;;;;26.28;43.43;94936.66;2965425;40;20065;-68
2021/08/10 00:28:16;;;;;;;7.78;5.50;;;;;;;26.00;44.49;94934.19;2963265;40;20053;-67
2021/08/10 00:30:18;;;;;;;7.75;5.43;;;;;;;25.26;46.09;94941.50;2965007;40;20137;-67
2021/08/10 00:32:19;;;;;;;11.75;5.68;;;;;;;24.71;46.95;94942.97;2962639;40;20305;-67
2021/08/10 00:34:21;;;;;;;6.72;5.38;;;;;;;24.59;47.30;94936.88;2963237;40;20056;-66
2021/08/10 00:36:23;;;;;;;6.38;5.03;;;;;;;24.73;47.14;94932.03;2963376;40;20137;-68
2021/08/10 00:38:25;;;;;;;8.63;5.20;;;;;;;24.94;46.71;94938.53;2966372;40;20060;-69
2021/08/10 00:40:28;;;;;;;9.48;5.18;;;;;;;25.17;46.18;94929.53;2966221;40;20445;-68
2021/08/10 00:42:30;;;;;;;6.70;4.90;;;;;;;25.37;45.51;94925.56;2965595;40;20048;-67
2021/08/10 00:44:32;;;;;;;7.47;5.20;;;;;;;25.50;45.21;94931.38;2966479;40;20049;-67
2021/08/10 00:46:33;;;;;;;9.15;5.15;;;;;;;25.45;45.30;94930.50;2967199;40;20057;-67
2021/08/10 00:48:35;;;;;;;6.65;5.32;;;;;;;25.22;45.89;94915.41;2967060;40;20056;-81
2021/08/10 00:50:37;;;;;;;8.93;5.40;;;;;;;25.00;46.38;94929.53;2965709;40;20057;-79
2021/08/10 00:52:39;;;;;;;6.75;5.18;;;;;;;24.97;46.32;94930.00;2966810;40;20238;-83
2021/08/10 00:54:40;;;;;;;8.52;5.68;;;;;;;24.99;46.44;94935.13;2969644;40;20053;-83
2021/08/10 00:56:42;;;;;;;6.07;4.75;;;;;;;25.09;46.39;94930.72;2974377;40;20056;-83
2021/08/10 00:58:44;;;;;;;8.07;4.93;;;;;;;25.17;46.37;94934.88;2969866;40;20056;-79
2021/08/10 01:00:46;;;;;;;6.88;5.13;;;;;;;24.66;47.17;94934.84;2966352;40;20379;-82
2021/08/10 01:02:47;;;;;;;7.95;5.05;;;;;;;24.36;48.54;94936.97;2969729;40;20326;-79
2021/08/10 01:04:50;;;;;;;7.77;5.70;;;;;;;24.28;48.64;94935.47;2966218;40;20175;-68
2021/08/10 01:07:14;;;;;;;8.90;5.32;;;;;;;24.16;48.63;94934.72;2966121;40;20060;-68
2021/08/10 01:09:40;;;;;;;9.82;5.80;;;;;;;23.99;49.35;94940.81;2965955;40;20044;-67
2021/08/10 01:11:56;;;;;;;7.82;5.05;;;;;;;24.11;49.15;94949.63;2965050;40;20096;-67
2021/08/10 01:14:17;;;;;;;8.88;5.25;;;;;;;24.03;49.01;94943.81;2963956;40;20064;-83
2021/08/10 01:16:40;;;;;;;11.35;5.63;;;;;;;23.75;49.71;94948.03;2967580;40;20402;-81
2021/08/10 01:18:50;;;;;;;6.32;4.72;;;;;;;23.43;50.81;94948.41;2966594;40;20088;-80
2021/08/10 01:21:11;;;;;;;7.65;5.47;;;;;;;23.48;50.33;94955.72;2965406;40;20075;-66
2021/08/10 01:23:16;;;;;;;8.88;5.13;;;;;;;23.35;50.46;94953.28;2969025;40;20056;-66
2021/08/10 01:25:47;;;;;;;8.65;5.25;;;;;;;23.44;50.79;94947.34;2963381;40;20440;-69
2021/08/10 01:27:54;;;;;;;9.18;5.10;;;;;;;23.67;49.81;94943.84;2956619;40;20138;-66
2021/08/10 01:30:11;;;;;;;8.13;5.80;;;;;;;23.84;49.57;94937.81;2966711;40;20060;-69
2021/08/10 01:32:13;;;;;;;7.25;5.15;;;;;;;24.10;48.77;94934.59;2964428;40;20420;-68
2021/08/10 01:34:18;;;;;;;7.53;4.80;;;;;;;24.36;48.13;94931.59;2961687;40;20072;-82
2021/08/10 01:36:21;;;;;;;8.38;5.28;;;;;;;24.55;47.70;94930.38;2971328;40;20478;-81
2021/08/10 01:38:23;;;;;;;5.77;4.40;;;;;;;24.75;47.38;94923.75;2966496;40;20086;-81
2021/08/10 01:40:26;;;;;;;7.93;4.90;;;;;;;24.92;46.72;94927.25;2964750;40;20294;-80
2021/08/10 01:42:29;;;;;;;9.32;5.20;;;;;;;25.05;46.28;94918.06;2963478;40;20470;-82
2021/08/10 01:44:32;;;;;;;6.47;4.78;;;;;;;25.15;46.18;94912.88;2966561;40;20085;-68
2021/08/10 01:46:34;;;;;;;9.15;5.05;;;;;;;25.19;45.87;94908.66;2962690;40;20041;-67
2021/08/10 01:48:36;;;;;;;10.38;4.60;;;;;;;25.27;45.52;94916.28;2967595;40;20048;-68
2021/08/10 01:50:38;;;;;;;7.82;5.00;;;;;;;25.34;45.85;94911.59;2963059;40;20056;-67
2021/08/10 01:52:41;;;;;;;6.80;4.93;;;;;;;25.36;45.96;94914.03;2966747;40;20393;-66
2021/08/10 01:54:44;;;;;;;9.27;5.30;;;;;;;25.35;45.95;94920.44;2965706;40;20112;-67
2021/08/10 01:56:46;;;;;;;7.13;5.35;;;;;;;25.35;45.68;94920.44;2967087;40;20091;-67
2021/08/10 01:58:48;;;;;;;6.50;5.05;;;;;;;25.17;46.00;94921.50;2966055;40;20052;-67
2021/08/10 02:00:52;;;;;;;9.40;5.30;;;;;;;25.03;46.27;94918.31;2966559;40;20056;-66
2021/08/10 02:02:53;;;;;;;;;;;;;;;24.95;46.72;94921.38;2967169;40;20045;-67
2021/08/10 02:04:56;;;;;;;6.78;5.38;;;;;;;24.66;47.55;94926.00;2964666;40;19940;-67
2021/08/10 02:06:59;;;;;;;6.82;5.43;;;;;;;24.59;47.44;94920.81;2965916;40;20330;-67
2021/08/10 02:09:01;;;;;;;11.55;5.47;;;;;;;24.69;47.28;94918.31;2965818;40;20056;-66
2021/08/10 02:11:03;;;;;;;6.75;5.10;;;;;;;24.83;46.83;94915.31;2965846;40;20052;-68
2021/08/10 02:13:06;;;;;;;7.93;5.15;;;;;;;24.94;46.86;94912.53;2965664;40;20068;-67
2021/08/10 02:15:08;;;;;;;7.93;5.22;;;;;;;25.07;46.19;94913.28;2965196;40;20519;-67
2021/08/10 02:17:14;;;;;;;9.38;5.55;;;;;;;25.14;45.92;94928.16;2965388;40;20067;-68
2021/08/10 02:19:17;;;;;;;6.53;4.60;;;;;;;25.22;45.80;94920.78;2965782;40;20055;-69
2021/08/10 02:21:24;;;;;;;9.07;5.78;;;;;;;25.26;45.70;94922.72;2964335;40;20615;-66
2021/08/10 02:23:29;;;;;;;7.30;4.85;;;;;;;25.29;45.56;94926.78;2966659;40;20109;-67
2021/08/10 02:25:31;;;;;;;6.85;4.85;;;;;;;25.30;45.63;94920.38;2966243;40;20044;-68
2021/08/10 02:27:50;;;;;;;7.45;4.97;;;;;;;25.32;45.43;94927.09;2965906;40;20048;-67
2021/08/10 02:29:52;;;;;;;7.32;5.03;;;;;;;25.35;45.26;94933.84;2963373;40;20134;-67
2021/08/10 02:31:54;;;;;;;7.38;4.63;;;;;;;25.37;45.19;94930.91;2966756;40;20088;-68
2021/08/10 02:33:56;;;;;;;6.57;4.60;;;;;;;25.40;45.11;94933.91;2967198;40;20383;-68
2021/08/10 02:35:59;;;;;;;9.50;4.95;;;;;;;25.41;45.21;94932.06;2964794;40;20125;-66
2021/08/10 02:38:07;;;;;;;5.95;4.68;;;;;;;25.43;44.90;94935.31;2965197;40;20064;-68
2021/08/10 02:40:10;;;;;;;9.07;5.35;;;;;;;25.42;44.88;94931.78;2965310;40;20522;-67
2021/08/10 02:42:14;;;;;;;8.93;5.30;;;;;;;25.25;45.57;94934.50;2966773;40;20065;-67
2021/08/10 02:44:16;;;;;;;7.75;5.53;;;;;;;24.97;46.33;94938.03;2964505;40;20319;-68
2021/08/10 02:46:18;;;;;;;9.45;5.07;;;;;;;24.61;47.09;94933.94;2970920;40;20064;-67
2021/08/10 02:48:21;;;;;;;8.00;5.10;;;;;;;24.47;47.16;94931.53;2966352;40;20326;-67
2021/08/10 02:50:25;;;;;;;7.30;5.45;;;;;;;24.26;48.04;94932.22;2965268;40;20053;-69
2021/08/10 02:52:27;;;;;;;6.97;5.32;;;;;;;24.34;47.97;94937.19;2966061;40;20078;-67
2021/08/10 02:54:28;;;;;;;9.00;5.38;;;;;;;24.44;47.34;94929.34;2966248;40;20427;-67
2021/08/10 02:56:39;;;;;;;8.38;5.72;;;;;;;24.50;47.85;94932.94;2965536;40;20135;-68
2021/08/10 02:58:53;;;;;;;7.75;5.07;;;;;;;24.55;47.30;94935.72;2965827;40;20137;-68
2021/08/10 03:00:57;;;;;;;8.75;5.78;;;;;;;24.50;47.63;94943.66;2965319;40;20048;-68
2021/08/10 03:03:08;;;;;;;8.10;5.72;;;;;;;24.27;48.18;94936.53;2964537;40;20093;-68
2021/08/10 03:05:15;;;;;;;13.70;5.85;;;;;;;24.18;48.30;94935.25;2966105;40;20044;-67
2021/08/10 03:07:18;;;;;;;10.18;5.65;;;;;;;24.25;48.32;94939.44;2965014;40;20462;-66
2021/08/10 03:09:20;;;;;;;10.35;5.88;;;;;;;24.39;47.50;94937.28;2957165;40;20045;-68
2021/08/10 03:11:23;;;;;;;8.13;5.70;;;;;;;24.51;47.17;94938.06;2966649;40;20068;-66
2021/08/10 03:13:26;;;;;;;7.28;5.47;;;;;;;24.62;46.39;94940.94;2965247;40;20037;-67
2021/08/10 03:15:29;;;;;;;6.65;5.50;;;;;;;24.67;46.43;94949.88;2965041;40;20076;-68
2021/08/10 03:17:36;;;;;;;7.00;5.13;;;;;;;24.65;46.71;94948.47;2964759;40;20097;-68
2021/08/10 03:19:39;;;;;;;7.55;5.55;;;;;;;24.65;46.58;94949.31;2963488;40;20401;-68
2021/08/10 03:21:42;;;;;;;10.55;5.15;;;;;;;24.65;46.29;94953.84;2966692;40;20416;-79
2021/08/10 03:23:44;;;;;;;;;;;;;;;24.65;46.55;94954.66;2967113;40;20125;-83
2021/08/10 03:25:48;;;;;;;7.07;4.95;;;;;;;24.68;46.29;94958.72;2966206;40;19963;-80
2021/08/10 03:27:51;;;;;;;7.95;5.05;;;;;;;24.73;46.44;94953.44;2954158;40;20432;-81
2021/08/10 03:29:54;;;;;;;7.10;5.03;;;;;;;24.79;46.73;94957.84;2970511;40;20113;-82
2021/08/10 03:31:55;;;;;;;8.30;5.33;;;;;;;24.86;45.95;94963.84;2967143;39;20319;-82
2021/08/10 03:33:58;;;;;;;8.77;5.72;;;;;;;24.89;46.05;94967.94;2966431;40;20702;-81
2021/08/10 03:36:00;;;;;;;7.85;5.05;;;;;;;24.61;47.03;94961.56;2962808;40;20138;-81
2021/08/10 03:38:02;;;;;;;7.90;5.18;;;;;;;24.51;47.20;94956.81;2958495;40;20110;-79
2021/08/10 03:42:27;;;;;;;8.25;5.43;;;;;;;24.58;46.88;94953.19;2969153;40;20157;-81
2021/08/10 03:44:29;;;;;;;12.63;5.70;;;;;;;24.67;46.87;94955.25;2967364;40;20052;-80
2021/08/10 03:46:31;;;;;;;7.82;5.00;;;;;;;24.72;46.21;94958.00;2966130;40;20089;-82
2021/08/10 03:48:37;;;;;;;8.68;4.80;;;;;;;24.84;45.54;94957.91;2965833;40;20053;-83
2021/08/10 03:50:40;;;;;;;8.77;4.90;;;;;;;24.90;45.28;94956.16;2966389;40;20049;-80
2021/08/10 03:52:41;;;;;;;7.72;5.05;;;;;;;24.93;45.16;94956.50;2961758;40;20060;-83
2021/08/10 03:54:43;;;;;;;7.50;4.70;;;;;;;24.94;44.71;94959.97;2968849;40;20105;-82
2021/08/10 03:56:46;;;;;;;7.53;4.75;;;;;;;24.98;44.65;94957.63;2967109;40;20117;-82
2021/08/10 03:58:48;;;;;;;8.43;5.07;;;;;;;25.02;44.52;94958.78;2966428;40;20141;-82
2021/08/10 04:00:52;;;;;;;6.85;4.72;;;;;;;25.05;44.37;94966.31;2966024;40;20412;-81
2021/08/10 04:02:54;;;;;;;6.78;4.65;;;;;;;25.05;44.08;94969.81;2968645;40;20045;-81
2021/08/10 04:04:57;;;;;;;;;;;;;;;25.05;44.25;94966.31;2969292;40;20106;-81
2021/08/10 04:07:02;;;;;;;7.55;5.28;;;;;;;25.09;44.15;94959.41;2966683;40;19974;-82
2021/08/10 04:09:04;;;;;;;8.90;6.97;;;;;;;25.11;44.24;94962.66;2959691;40;20183;-81
2021/08/10 04:11:06;;;;;;;10.88;5.00;;;;;;;25.18;43.99;94965.19;2970236;40;20184;-82
2021/08/10 04:13:09;;;;;;;7.35;4.55;;;;;;;25.24;43.79;94954.31;2968387;40;20473;-81
2021/08/10 04:15:12;;;;;;;9.45;5.25;;;;;;;25.27;43.86;94955.69;2968515;40;20417;-81
2021/08/10 04:17:15;;;;;;;6.78;4.53;;;;;;;25.33;43.81;94955.53;2968258;40;20350;-82
2021/08/10 04:19:19;;;;;;;7.03;5.28;;;;;;;25.33;44.07;94954.72;2962625;40;20058;-82
2021/08/10 04:21:25;;;;;;;8.50;5.00;;;;;;;25.30;44.07;94958.72;2967676;40;20133;-81
2021/08/10 04:23:27;;;;;;;10.00;5.43;;;;;;;25.24;44.53;94959.69;2969161;40;20337;-81
2021/08/10 04:25:28;;;;;;;10.38;5.43;;;;;;;25.16;45.33;94964.63;2966758;40;20052;-80
2021/08/10 04:27:30;;;;;;;15.82;5.38;;;;;;;25.13;45.41;94964.03;2965985;40;20141;-82
2021/08/10 04:29:32;;;;;;;10.75;5.95;;;;;;;24.98;47.47;94965.69;2965540;40;20060;-84
2021/08/10 04:31:34;;;;;;;12.38;6.55;;;;;;;24.80;47.93;94964.84;2966986;40;20069;-81
2021/08/10 04:33:35;;;;;;;9.70;6.20;;;;;;;24.62;48.53;94968.53;2968238;40;20059;-82
2021/08/10 04:35:37;;;;;;;12.30;6.53;;;;;;;24.59;48.75;94968.22;2967116;40;20152;-78
2021/08/10 04:37:39;;;;;;;9.68;6.00;;;;;;;24.71;47.97;94969.75;2969171;40;20426;-81
2021/08/10 04:39:41;;;;;;;8.63;6.03;;;;;;;24.83;48.02;94975.06;2967403;40;20111;-81
2021/08/10 04:41:42;;;;;;;15.38;6.20;;;;;;;24.97;47.54;94988.97;2963206;40;20438;-81
2021/08/10 04:43:44;;;;;;;9.70;6.20;;;;;;;25.08;47.39;94985.41;2969145;40;20044;-81
2021/08/10 04:45:46;;;;;;;10.02;6.00;;;;;;;25.26;47.02;94989.75;2969288;40;20404;-81
2021/08/10 04:47:48;;;;;;;8.85;5.80;;;;;;;25.39;46.79;94977.88;2966354;40;20064;-84
2021/08/10 04:49:49;;;;;;;10.23;6.35;;;;;;;25.45;46.57;94989.50;2964437;40;20408;-82
2021/08/10 04:51:51;;;;;;;13.48;6.38;;;;;;;25.49;46.34;94982.56;2966287;40;20064;-82
2021/08/10 04:53:53;;;;;;;13.32;6.72;;;;;;;25.48;46.46;94986.31;2966967;40;20064;-81
2021/08/10 04:55:54;;;;;;;7.80;6.57;;;;;;;25.41;46.51;94989.19;2967275;40;20076;-82
2021/08/10 04:57:56;;;;;;;10.15;6.30;;;;;;;25.37;46.60;94993.41;2968154;40;20060;-82
2021/08/10 04:59:58;;;;;;;13.48;6.75;;;;;;;25.15;46.92;94995.97;2968700;40;20122;-86
2021/08/10 05:02:00;;;;;;;11.20;6.70;;;;;;;25.21;47.02;94992.34;2972164;40;20542;-81
2021/08/10 05:04:02;;;;;;;13.93;6.88;;;;;;;25.24;46.89;94994.53;2970317;39;20069;-83
2021/08/10 05:06:04;;;;;;;15.23;6.70;;;;;;;25.05;47.32;94995.81;2967434;40;20048;-84
2021/08/10 05:08:06;;;;;;;9.45;6.80;;;;;;;24.88;47.82;95004.63;2963734;40;20104;-82
2021/08/10 05:10:08;;;;;;;10.27;6.65;;;;;;;24.72;47.90;95003.53;2965042;40;20113;-80
2021/08/10 05:12:10;;;;;;;11.50;6.95;;;;;;;24.62;48.67;95003.34;2965807;40;20499;-81
2021/08/10 05:14:12;;;;;;;11.77;6.90;;;;;;;24.83;47.73;95003.72;2967436;40;20083;-83
2021/08/10 05:16:13;;;;;;;12.73;6.40;;;;;;;24.75;47.22;94996.88;2970240;40;20068;-82
2021/08/10 05:18:15;;;;;;;7.75;6.15;;;;;;;24.92;47.25;94999.59;2971530;40;20137;-84
2021/08/10 05:20:17;;;;;;;7.53;5.90;;;;;;;25.16;46.49;95004.81;2969667;40;20102;-68
2021/08/10 05:22:20;;;;;;;14.65;5.95;;;;;;;25.40;46.00;95008.19;2965338;40;20056;-67
2021/08/10 05:24:21;;;;;;;8.17;5.93;;;;;;;25.44;45.26;95006.66;2965827;40;20153;-67
2021/08/10 05:26:24;;;;;;;9.75;6.18;;;;;;;25.61;44.94;94996.72;2966659;40;20137;-70
2021/08/10 05:28:26;;;;;;;7.85;5.70;;;;;;;25.79;44.56;94994.81;2967152;40;20602;-67
2021/08/10 05:30:28;;;;;;;10.48;5.95;;;;;;;25.92;44.29;94998.00;2966909;40;20096;-68
2021/08/10 05:32:29;;;;;;;9.75;5.88;;;;;;;26.05;44.22;94994.16;2966324;40;20417;-69
2021/08/10 05:34:31;;;;;;;10.75;5.68;;;;;;;26.15;43.56;94993.44;2966919;40;20092;-68
2021/08/10 05:36:33;;;;;;;12.90;6.18;;;;;;;26.23;43.04;94997.59;2964851;40;20044;-68
2021/08/10 05:38:35;;;;;;;8.75;5.13;;;;;;;26.17;42.98;94988.63;2967297;40;20389;-67
2021/08/10 05:40:37;;;;;;;9.15;5.50;;;;;;;26.13;43.12;94992.88;2966447;40;20048;-67
2021/08/10 05:42:38;;;;;;;7.90;6.07;;;;;;;26.19;43.09;94991.09;2966869;40;20430;-69
2021/08/10 05:44:41;;;;;;;11.85;5.57;;;;;;;26.13;43.27;94985.63;2966692;40;20351;-69
2021/08/10 05:46:44;;;;;;;9.55;5.47;;;;;;;26.18;42.89;94984.06;2965550;40;20421;-68
2021/08/10 05:48:46;;;;;;;14.45;6.25;;;;;;;26.27;42.70;94988.78;2963900;40;20076;-68
2021/08/10 05:50:48;;;;;;;8.45;5.15;;;;;;;26.28;42.48;94987.69;2965569;40;20176;-68
2021/08/10 05:52:49;;;;;;;11.05;6.00;;;;;;;25.76;43.69;94996.13;2966881;40;20068;-68
2021/08/10 05:54:52;;;;;;;9.57;6.28;;;;;;;25.85;43.82;94991.16;2967141;40;20067;-68
2021/08/10 05:56:54;;;;;;;10.02;5.68;;;;;;;25.89;43.75;95001.16;2965899;40;20130;-69
2021/08/10 05:58:55;;;;;;;12.85;5.90;;;;;;;26.08;43.13;94998.19;2965502;40;20044;-69
2021/08/10 06:00:57;;;;;;;12.50;5.72;;;;;;;26.31;42.87;95002.53;2963704;40;20072;-67
2021/08/10 06:02:59;;;;;;;13.00;5.65;;;;;;;26.51;42.45;94991.19;2969610;40;20505;-69
2021/08/10 06:05:01;;;;;;;6.70;5.97;;;;;;;26.62;41.99;95001.00;2965195;40;20457;-67
2021/08/10 06:07:04;;;;;;;10.93;5.70;;;;;;;26.77;41.80;94998.47;2966682;40;20045;-68
2021/08/10 06:09:06;;;;;;;13.50;8.15;;;;;;;26.83;41.47;94999.34;2966279;40;20068;-69
2021/08/10 06:11:08;;;;;;;10.13;5.63;;;;;;;26.84;41.33;95000.97;2961895;40;20442;-69
2021/08/10 06:13:09;;;;;;;10.63;5.80;;;;;;;26.95;41.63;95005.41;2966184;40;20041;-69
2021/08/10 06:15:15;;;;;;;8.93;5.50;;;;;;;27.09;41.28;95003.09;2965925;40;20060;-68
2021/08/10 06:17:17;;;;;;;7.80;5.60;;;;;;;27.20;41.17;95006.69;2965883;40;20056;-68
2021/08/10 06:19:18;;;;;;;8.25;5.45;;;;;;;27.31;40.74;95005.72;2971022;40;20687;-83
2021/08/10 06:21:20;;;;;;;9.20;5.80;;;;;;;27.37;40.55;95001.19;2972159;40;20088;-84
2021/08/10 06:23:22;;;;;;;7.03;5.43;;;;;;;27.43;40.75;95008.25;2968175;40;20462;-82
2021/08/10 06:25:24;;;;;;;8.02;5.07;;;;;;;27.47;40.36;95005.84;2970420;40;20380;-83
2021/08/10 06:27:25;;;;;;;8.07;5.43;;;;;;;27.54;40.29;95001.06;2971109;40;20056;-78
2021/08/10 06:29:27;;;;;;;9.48;5.28;;;;;;;27.60;40.27;95008.09;2976345;40;20049;-82
2021/08/10 06:31:29;;;;;;;8.45;5.20;;;;;;;27.60;39.53;95004.59;2968579;40;20081;-81
2021/08/10 06:33:31;;;;;;;6.82;5.13;;;;;;;27.68;39.55;94998.72;2966723;40;20092;-84
2021/08/10 06:35:33;;;;;;;9.65;5.53;;;;;;;27.78;39.72;95002.28;2968489;40;20121;-81
2021/08/10 06:37:35;;;;;;;9.63;5.22;;;;;;;27.89;39.21;94995.13;2968052;40;20162;-84
2021/08/10 06:39:37;;;;;;;8.90;5.68;;;;;;;27.81;39.32;94998.25;2969908;40;20068;-83
2021/08/10 06:41:38;;;;;;;10.68;5.75;;;;;;;27.78;39.30;94999.59;2970107;40;20052;-84
2021/08/10 06:43:40;;;;;;;9.25;5.68;;;;;;;27.62;39.63;95000.59;2972312;40;20404;-83
2021/08/10 06:45:43;;;;;;;9.45;5.40;;;;;;;27.72;39.13;94995.25;2967077;40;20056;-69
2021/08/10 06:47:47;;;;;;;7.55;5.50;;;;;;;27.76;38.91;94988.28;2965214;40;20244;-68
2021/08/10 06:49:49;;;;;;;11.65;6.13;;;;;;;27.91;38.81;94989.47;2962212;40;20109;-69
2021/08/10 06:51:51;;;;;;;14.20;6.68;;;;;;;28.03;39.34;95000.88;2966555;40;20048;-68
2021/08/10 06:53:52;;;;;;;9.13;5.90;;;;;;;28.21;38.62;94994.22;2965075;40;20077;-70
2021/08/10 06:55:54;;;;;;;7.45;5.60;;;;;;;28.33;38.48;94991.28;2966613;40;20052;-69
2021/08/10 06:57:56;;;;;;;10.55;5.88;;;;;;;28.39;38.38;94987.53;2966241;40;20321;-68
2021/08/10 06:59:58;;;;;;;10.73;6.13;;;;;;;28.51;38.41;94981.97;2969929;40;20156;-82
2021/08/10 07:01:59;;;;;;;16.73;6.80;;;;;;;28.63;38.19;94985.25;2962543;40;20073;-83
2021/08/10 07:04:01;;;;;;;9.10;5.85;;;;;;;28.69;37.97;94989.53;2973403;40;20055;-84
2021/08/10 07:06:03;;;;;;;13.48;6.45;;;;;;;28.39;37.60;94985.69;2973896;40;20053;-86
2021/08/10 07:08:05;;;;;;;11.15;5.53;;;;;;;28.39;37.95;94987.53;2970239;40;20072;-85
2021/08/10 07:10:08;;;;;;;5.57;4.95;;;;;;;28.41;38.05;94981.91;2966126;40;20138;-84
2021/08/10 07:12:09;;;;;;;11.23;6.25;;;;;;;28.56;37.34;94985.47;2968066;40;20109;-86
2021/08/10 07:14:12;;;;;;;8.88;5.70;;;;;;;28.67;37.42;94986.31;2967729;40;20157;-82
2021/08/10 07:16:13;;;;;;;8.90;5.72;;;;;;;28.69;37.44;94986.03;2972341;40;20129;-83
2021/08/10 07:18:15;;;;;;;9.55;5.78;;;;;;;28.81;37.26;94983.91;2967799;40;20332;-83
2021/08/10 07:20:17;;;;;;;10.82;4.93;;;;;;;28.88;37.41;94989.06;2969141;40;20114;-84
2021/08/10 07:22:18;;;;;;;10.20;5.47;;;;;;;29.05;37.00;94981.53;2972531;40;20113;-68
2021/08/10 07:24:34;;;;;;;12.85;5.93;;;;;;;29.07;36.49;94975.88;2965490;40;20055;-70
2021/08/10 07:26:36;;;;;;;12.55;5.53;;;;;;;28.82;37.42;94977.44;2966588;40;20129;-67
2021/08/10 07:28:37;;;;;;;8.25;5.63;;;;;;;28.73;36.77;94979.84;2960702;40;20505;-68
2021/08/10 07:30:39;;;;;;;6.80;5.32;;;;;;;28.78;37.11;94974.50;2964021;40;20037;-70
2021/08/10 07:32:41;;;;;;;8.73;5.38;;;;;;;28.93;36.64;94970.19;2966884;40;20060;-70
2021/08/10 07:34:43;;;;;;;9.68;5.57;;;;;;;29.04;36.09;94968.31;2964443;40;20467;-71
2021/08/10 07:36:49;;;;;;;11.05;5.28;;;;;;;29.23;35.96;94972.13;2966654;40;20063;-70
2021/08/10 07:38:51;;;;;;;7.40;5.10;;;;;;;29.42;35.50;94974.28;2966717;40;20126;-70
2021/08/10 07:40:52;;;;;;;10.25;5.90;;;;;;;29.46;35.46;94969.97;2966773;40;20041;-70
2021/08/10 07:42:54;;;;;;;11.18;5.80;;;;;;;29.46;35.98;94973.47;2965672;40;20117;-71
2021/08/10 07:44:56;;;;;;;13.15;6.18;;;;;;;29.59;35.52;94974.78;2965540;40;20126;-68
2021/08/10 07:46:57;;;;;;;9.10;5.47;;;;;;;29.75;35.38;94971.03;2965160;40;20134;-70
2021/08/10 07:48:59;;;;;;;10.40;5.10;;;;;;;29.91;35.19;94973.69;2963820;40;20074;-70
2021/08/10 07:51:01;;;;;;;6.90;5.60;;;;;;;30.05;34.98;94969.34;2963851;40;20121;-68
2021/08/10 07:53:03;;;;;;;8.00;5.20;;;;;;;29.98;34.88;94971.50;2965155;40;20049;-68
2021/08/10 07:55:05;;;;;;;8.75;4.95;;;;;;;29.84;35.02;94970.47;2966577;40;20510;-70
2021/08/10 07:57:07;;;;;;;6.77;5.27;;;;;;;29.84;34.84;94965.09;2966125;40;20205;-70
2021/08/10 07:59:09;;;;;;;9.23;5.47;;;;;;;29.98;34.81;94966.91;2965740;40;20301;-68
2021/08/10 08:01:11;;;;;;;11.23;5.85;;;;;;;30.08;34.74;94973.38;2967325;40;20048;-82
2021/08/10 08:03:13;;;;;;;9.00;5.38;;;;;;;29.99;34.63;94973.13;2967609;40;20059;-85
2021/08/10 08:05:15;;;;;;;11.15;5.80;;;;;;;29.68;34.95;94969.66;2967228;40;20085;-86
2021/08/10 08:07:17;;;;;;;16.85;6.38;;;;;;;29.76;34.92;94969.94;2964631;40;20053;-82
2021/08/10 08:09:18;;;;;;;16.48;5.93;;;;;;;29.73;35.09;94965.09;2969664;40;20048;-84
2021/08/10 08:11:20;;;;;;;8.77;6.07;;;;;;;29.72;35.02;94962.66;2963888;40;20100;-85
2021/08/10 08:13:24;;;;;;;13.38;5.75;;;;;;;29.79;34.91;94964.00;2971206;40;20110;-81
2021/08/10 08:15:26;;;;;;;9.13;5.30;;;;;;;29.94;34.25;94955.06;2969975;40;20593;-70
2021/08/10 08:17:27;;;;;;;8.40;5.35;;;;;;;29.96;34.20;94957.47;2963918;40;20130;-68
2021/08/10 08:19:47;;;;;;;9.68;5.35;;;;;;;30.05;34.12;94960.41;2959031;40;20439;-68
2021/08/10 08:21:49;;;;;;;9.10;5.38;;;;;;;29.98;33.83;94958.00;2966390;40;20494;-69
2021/08/10 08:23:51;;;;;;;10.82;5.95;;;;;;;29.91;34.04;94962.91;2966085;40;20173;-69
2021/08/10 08:25:53;;;;;;;7.60;4.95;;;;;;;29.78;34.12;94956.97;2965497;40;20113;-71
2021/08/10 08:27:55;;;;;;;10.07;5.38;;;;;;;29.81;33.86;94961.00;2963298;40;20061;-69
2021/08/10 08:29:56;;;;;;;8.35;5.20;;;;;;;30.18;33.65;94963.34;2965141;40;20148;-69
2021/08/10 08:31:58;;;;;;;9.70;5.47;;;;;;;30.20;33.03;94958.47;2965607;40;20145;-68
2021/08/10 08:34:00;;;;;;;10.45;6.13;;;;;;;30.21;33.07;94956.56;2966316;40;20505;-69
2021/08/10 08:36:02;;;;;;;9.88;4.85;;;;;;;30.33;32.90;94954.41;2964790;40;20360;-70
2021/08/10 08:38:06;;;;;;;8.98;5.80;;;;;;;30.51;32.85;94950.25;2964950;40;20060;-70
2021/08/10 08:40:07;;;;;;;;;;;;;;;30.51;33.05;94947.53;2959597;40;20064;-68
2021/08/10 08:42:10;;;;;;;;;;;;;;;30.54;32.89;94944.25;2966568;40;19965;-71
2021/08/10 08:44:14;;;;;;;;;;;;;;;30.61;32.79;94936.69;2966455;40;19944;-69
2021/08/10 08:46:16;;;;;;;;;;;;;;;30.66;32.77;94940.44;2966640;40;19944;-70
2021/08/10 08:48:18;;;;;;;;;;;;;;;30.74;32.57;94939.81;2966682;40;19936;-70
2021/08/10 08:50:19;;;;;;;;;;;;;;;30.82;32.80;94942.78;2963572;40;19990;-68
2021/08/10 08:52:21;;;;;;;;;;;;;;;30.81;32.67;94940.34;2963745;40;20275;-69
2021/08/10 08:54:23;;;;;;;;;;;;;;;31.03;32.12;94932.63;2957626;40;19964;-70
2021/08/10 08:56:25;;;;;;;;;;;;;;;31.20;31.86;94931.41;2966172;40;19968;-68
2021/08/10 08:58:26;;;;;;;;;;;;;;;30.86;32.35;94929.50;2967076;40;19960;-68
2021/08/10 09:00:28;;;;;;;;;;;;;;;30.75;32.81;94930.63;2966964;40;19989;-69
2021/08/10 09:02:30;;;;;;;;;;;;;;;30.81;32.08;94930.31;2968004;40;20299;-67
2021/08/10 09:04:31;;;;;;;;;;;;;;;30.89;32.30;94934.38;2967677;40;20301;-82
2021/08/10 09:06:33;;;;;;;;;;;;;;;30.94;31.47;94928.91;2972924;40;19944;-84
2021/08/10 09:08:39;;;;;;;;;;;;;;;30.86;31.72;94917.84;2970192;40;20044;-84
2021/08/10 09:10:40;;;;;;;;;;;;;;;30.91;31.42;94917.84;2974486;40;19933;-84
2021/08/10 09:12:46;;;;;;;;;;;;;;;31.14;30.95;94919.00;2969243;40;20630;-85
2021/08/10 09:14:51;;;;;;;;;;;;;;;31.25;31.02;94915.13;2967933;40;20049;-69
2021/08/10 09:17:03;;;;;;;;;;;;;;;31.45;30.68;94910.63;2966563;40;20214;-68
2021/08/10 09:19:05;;;;;;;;;;;;;;;31.54;30.41;94917.06;2967687;40;20151;-68
2021/08/10 09:21:11;;;;;;;;;;;;;;;31.52;30.11;94911.13;2965804;40;20309;-68
2021/08/10 09:23:13;;;;;;;;;;;;;;;31.45;30.16;94906.06;2965335;40;19940;-68
2021/08/10 09:25:15;;;;;;;;;;;;;;;31.25;30.23;94908.91;2963073;40;20016;-68
2021/08/10 09:27:26;;;;;;;;;;;;;;;31.08;29.68;94902.00;2967083;40;19940;-69
2021/08/10 09:29:29;;;;;;;;;;;;;;;31.47;28.59;94900.34;2966220;40;19944;-67
2021/08/10 09:31:37;;;;;;;;;;;;;;;31.64;26.80;94900.69;2965017;40;19937;-68
2021/08/10 09:33:40;;;;;;;;;;;;;;;31.81;26.87;94892.94;2965087;40;19998;-68
2021/08/10 09:35:41;;;;;;;;;;;;;;;31.63;28.50;94890.97;2964194;40;19937;-70
2021/08/10 09:37:43;;;;;;;;;;;;;;;31.57;28.41;94894.81;2965160;40;19944;-68
2021/08/10 09:39:45;;;;;;;;;;;;;;;31.69;28.20;94895.25;2965530;40;19981;-69
2021/08/10 09:41:59;;;;;;;;;;;;;;;31.76;27.86;94884.06;2962506;40;19948;-69
2021/08/10 09:44:16;;;;;;;;;;;;;;;31.87;27.90;94882.03;2963255;40;19976;-68
2021/08/10 09:46:18;;;;;;;;;;;;;;;31.50;28.10;94886.25;2966134;40;19948;-71
2021/08/10 09:48:25;;;;;;;;;;;;;;;31.83;27.76;94882.59;2964020;40;20008;-67